Time,TemperatureF,DewpointF,PressureIn,WindDirection,WindDirectionDegrees,WindSpeedMPH,WindSpeedGustMPH,Humidity,HourlyPrecipIn,Conditions,Clouds,dailyrainin,SoftwareType,DateUTC
2013-09-14 00:04:00,53.7,45.0,30.08,NE,55,0.0,1.0,72,0.00,,,0.00,weatherlink.com 1.10,2013-09-14 05:04:00,
2013-09-14 00:19:00,52.8,45.0,30.09,NE,55,0.0,0.0,74,0.00,,,0.00,weatherlink.com 1.10,2013-09-14 05:19:00,
2013-09-14 00:34:00,52.2,45.0,30.09,NE,55,0.0,1.0,76,0.00,,,0.00,weatherlink.com 1.10,2013-09-14 05:34:00,
2013-09-14 00:49:00,51.5,45.0,30.09,NE,55,0.0,1.0,77,0.00,,,0.00,weatherlink.com 1.10,2013-09-14 05:49:00,
2013-09-14 01:04:00,51.1,44.0,30.08,NE,55,0.0,1.0,78,0.00,,,0.00,weatherlink.com 1.10,2013-09-14 06:04:00,
2013-09-14 01:19:00,50.6,45.0,30.09,NE,55,0.0,1.0,80,0.00,,,0.00,weatherlink.com 1.10,2013-09-14 06:19:00,
2013-09-14 01:34:00,50.3,44.0,30.09,NE,55,0.0,0.0,80,0.00,,,0.00,weatherlink.com 1.10,2013-09-14 06:34:00,
2013-09-14 01:49:00,50.2,44.0,30.09,NE,55,0.0,0.0,80,0.00,,,0.00,weatherlink.com 1.10,2013-09-14 06:49:00,
2013-09-14 02:04:00,49.8,44.0,30.09,NE,55,1.0,3.0,79,0.00,,,0.00,weatherlink.com 1.10,2013-09-14 07:04:00,
2013-09-14 02:19:00,50.2,44.0,30.08,NE,55,2.0,3.0,79,0.00,,,0.00,weatherlink.com 1.10,2013-09-14 07:19:00,
2013-09-14 02:34:00,50.3,44.0,30.08,NE,55,2.0,4.0,79,0.00,,,0.00,weatherlink.com 1.10,2013-09-14 07:34:00,
2013-09-14 02:49:00,50.0,44.0,30.08,NE,55,2.0,4.0,79,0.00,,,0.00,weatherlink.com 1.10,2013-09-14 07:49:00,
2013-09-14 03:04:00,49.7,44.0,30.08,NE,55,0.0,3.0,80,0.00,,,0.00,weatherlink.com 1.10,2013-09-14 08:04:00,
2013-09-14 03:19:00,49.5,43.0,30.07,NE,55,1.0,2.0,79,0.00,,,0.00,weatherlink.com 1.10,2013-09-14 08:19:00,
2013-09-14 03:34:00,49.1,44.0,30.07,NE,55,1.0,3.0,81,0.00,,,0.00,weatherlink.com 1.10,2013-09-14 08:34:00,
2013-09-14 03:49:00,48.7,43.0,30.07,NE,55,0.0,3.0,81,0.00,,,0.00,weatherlink.com 1.10,2013-09-14 08:49:00,
2013-09-14 04:04:00,48.5,43.0,30.07,NE,55,0.0,1.0,82,0.00,,,0.00,weatherlink.com 1.10,2013-09-14 09:04:00,
2013-09-14 04:19:00,48.3,43.0,30.08,NE,55,2.0,3.0,82,0.00,,,0.00,weatherlink.com 1.10,2013-09-14 09:19:00,
2013-09-14 04:34:00,47.7,43.0,30.08,NE,55,0.0,1.0,84,0.00,,,0.00,weatherlink.com 1.10,2013-09-14 09:34:00,
2013-09-14 04:49:00,47.2,43.0,30.08,NE,55,0.0,0.0,86,0.00,,,0.00,weatherlink.com 1.10,2013-09-14 09:49:00,
2013-09-14 05:04:00,46.9,43.0,30.09,NE,55,0.0,0.0,86,0.00,,,0.00,weatherlink.com 1.10,2013-09-14 10:04:00,
2013-09-14 05:19:00,47.1,43.0,30.09,NE,55,0.0,2.0,86,0.00,,,0.00,weatherlink.com 1.10,2013-09-14 10:19:00,
2013-09-14 05:35:00,46.5,43.0,30.09,NE,55,0.0,1.0,86,0.00,,,0.00,weatherlink.com 1.10,2013-09-14 10:35:00,
2013-09-14 05:50:00,46.1,43.0,30.10,NE,55,0.0,0.0,88,0.00,,,0.00,weatherlink.com 1.10,2013-09-14 10:50:00,
2013-09-14 06:05:00,45.6,42.0,30.10,NE,55,0.0,0.0,87,0.00,,,0.00,weatherlink.com 1.10,2013-09-14 11:05:00,
2013-09-14 06:20:00,45.2,43.0,30.10,NE,55,0.0,1.0,90,0.00,,,0.00,weatherlink.com 1.10,2013-09-14 11:20:00,
2013-09-14 06:35:00,45.1,42.0,30.11,NE,55,0.0,0.0,90,0.00,,,0.00,weatherlink.com 1.10,2013-09-14 11:35:00,
2013-09-14 06:51:00,44.9,42.0,30.11,NE,55,1.0,0.0,90,0.00,,,0.00,weatherlink.com 1.10,2013-09-14 11:51:00,
2013-09-14 07:05:00,45.0,43.0,30.12,NE,55,0.0,1.0,91,0.00,,,0.00,weatherlink.com 1.10,2013-09-14 12:05:00,
2013-09-14 07:20:00,46.4,44.0,30.13,NE,55,0.0,1.0,92,0.00,,,0.00,weatherlink.com 1.10,2013-09-14 12:20:00,
2013-09-14 07:35:00,49.0,46.0,30.13,NE,55,1.0,2.0,88,0.00,,,0.00,weatherlink.com 1.10,2013-09-14 12:35:00,
2013-09-14 07:50:00,50.3,46.0,30.14,NE,55,3.0,4.0,84,0.00,,,0.00,weatherlink.com 1.10,2013-09-14 12:50:00,
2013-09-14 08:05:00,51.6,47.0,30.14,NE,55,2.0,3.0,83,0.00,,,0.00,weatherlink.com 1.10,2013-09-14 13:05:00,
2013-09-14 08:20:00,52.8,47.0,30.14,East,83,1.0,4.0,82,0.00,,,0.00,weatherlink.com 1.10,2013-09-14 13:20:00,
2013-09-14 08:35:00,54.8,49.0,30.14,ESE,109,2.0,5.0,80,0.00,,,0.00,weatherlink.com 1.10,2013-09-14 13:35:00,
2013-09-14 08:50:00,56.6,49.0,30.14,ESE,114,4.0,5.0,76,0.00,,,0.00,weatherlink.com 1.10,2013-09-14 13:50:00,
2013-09-14 09:05:00,58.3,50.0,30.14,SE,144,6.0,8.0,73,0.00,,,0.00,weatherlink.com 1.10,2013-09-14 14:05:00,
2013-09-14 09:21:00,59.7,49.0,30.14,SE,127,5.0,11.0,69,0.00,,,0.00,weatherlink.com 1.10,2013-09-14 14:21:00,
2013-09-14 09:36:00,61.1,50.0,30.14,SE,126,5.0,11.0,68,0.00,,,0.00,weatherlink.com 1.10,2013-09-14 14:36:00,
2013-09-14 09:51:00,62.4,50.0,30.14,ESE,120,11.0,12.0,65,0.00,,,0.00,weatherlink.com 1.10,2013-09-14 14:51:00,
2013-09-14 10:06:00,64.0,51.0,30.14,SE,144,6.0,11.0,62,0.00,,,0.00,weatherlink.com 1.10,2013-09-14 15:06:00,
2013-09-14 10:21:00,64.7,51.0,30.14,SSE,152,6.0,8.0,61,0.00,,,0.00,weatherlink.com 1.10,2013-09-14 15:21:00,
2013-09-14 10:36:00,65.9,51.0,30.14,SE,130,8.0,10.0,58,0.00,,,0.00,weatherlink.com 1.10,2013-09-14 15:36:00,
2013-09-14 10:51:00,66.8,49.0,30.14,SSW,192,3.0,11.0,54,0.00,,,0.00,weatherlink.com 1.10,2013-09-14 15:51:00,
2013-09-14 11:06:00,67.3,50.0,30.13,South,180,4.0,9.0,54,0.00,,,0.00,weatherlink.com 1.10,2013-09-14 16:06:00,
2013-09-14 11:21:00,68.3,49.0,30.13,SSW,200,0.0,8.0,50,0.00,,,0.00,weatherlink.com 1.10,2013-09-14 16:21:00,
2013-09-14 11:36:00,69.1,49.0,30.13,SE,142,7.0,11.0,49,0.00,,,0.00,weatherlink.com 1.10,2013-09-14 16:36:00,
2013-09-14 11:51:00,69.6,49.0,30.12,SSW,196,5.0,8.0,48,0.00,,,0.00,weatherlink.com 1.10,2013-09-14 16:51:00,
2013-09-14 12:06:00,70.2,49.0,30.11,SSW,201,1.0,10.0,47,0.00,,,0.00,weatherlink.com 1.10,2013-09-14 17:06:00,
2013-09-14 12:21:00,71.1,49.0,30.11,SW,223,5.0,12.0,46,0.00,,,0.00,weatherlink.com 1.10,2013-09-14 17:21:00,
2013-09-14 12:36:00,72.0,48.0,30.10,ESE,118,10.0,10.0,43,0.00,,,0.00,weatherlink.com 1.10,2013-09-14 17:36:00,
2013-09-14 12:51:00,71.5,47.0,30.10,SE,140,5.0,9.0,42,0.00,,,0.00,weatherlink.com 1.10,2013-09-14 17:51:00,
2013-09-14 13:06:00,72.3,49.0,30.09,SE,146,9.0,11.0,44,0.00,,,0.00,weatherlink.com 1.10,2013-09-14 18:06:00,
2013-09-14 13:21:00,73.2,48.0,30.08,ENE,78,2.0,10.0,41,0.00,,,0.00,weatherlink.com 1.10,2013-09-14 18:21:00,
2013-09-14 13:36:00,73.4,47.0,30.08,SSE,148,2.0,12.0,39,0.00,,,0.00,weatherlink.com 1.10,2013-09-14 18:36:00,
2013-09-14 13:51:00,74.2,48.0,30.07,SSE,155,5.0,12.0,40,0.00,,,0.00,weatherlink.com 1.10,2013-09-14 18:51:00,
2013-09-14 14:07:00,74.7,47.0,30.06,SSW,192,5.0,10.0,37,0.00,,,0.00,weatherlink.com 1.10,2013-09-14 19:07:00,
2013-09-14 14:22:00,74.8,46.0,30.05,SSE,149,2.0,10.0,36,0.00,,,0.00,weatherlink.com 1.10,2013-09-14 19:22:00,
2013-09-14 14:37:00,74.8,45.0,30.05,SW,220,2.0,10.0,35,0.00,,,0.00,weatherlink.com 1.10,2013-09-14 19:37:00,
2013-09-14 14:52:00,76.2,46.0,30.04,SE,140,5.0,10.0,34,0.00,,,0.00,weatherlink.com 1.10,2013-09-14 19:52:00,
2013-09-14 15:07:00,75.7,45.0,30.04,SSE,153,10.0,10.0,34,0.00,,,0.00,weatherlink.com 1.10,2013-09-14 20:07:00,
2013-09-14 15:22:00,76.1,45.0,30.03,South,184,8.0,10.0,33,0.00,,,0.00,weatherlink.com 1.10,2013-09-14 20:22:00,
2013-09-14 15:37:00,76.2,44.0,30.02,SE,132,2.0,9.0,32,0.00,,,0.00,weatherlink.com 1.10,2013-09-14 20:37:00,
2013-09-14 15:52:00,76.3,44.0,30.01,NE,37,3.0,12.0,32,0.00,,,0.00,weatherlink.com 1.10,2013-09-14 20:52:00,
2013-09-14 16:07:00,77.0,46.0,30.00,ESE,121,4.0,10.0,33,0.00,,,0.00,weatherlink.com 1.10,2013-09-14 21:07:00,
2013-09-14 16:22:00,76.7,45.0,30.00,SSE,149,4.0,10.0,33,0.00,,,0.00,weatherlink.com 1.10,2013-09-14 21:22:00,
2013-09-14 16:37:00,76.7,46.0,30.00,SSE,161,5.0,11.0,34,0.00,,,0.00,weatherlink.com 1.10,2013-09-14 21:37:00,
2013-09-14 16:52:00,75.9,46.0,29.99,SSE,163,4.0,9.0,34,0.00,,,0.00,weatherlink.com 1.10,2013-09-14 21:52:00,
2013-09-14 17:07:00,75.6,46.0,29.99,SSE,159,5.0,11.0,35,0.00,,,0.00,weatherlink.com 1.10,2013-09-14 22:07:00,
2013-09-14 17:22:00,74.8,45.0,30.00,South,186,3.0,9.0,35,0.00,,,0.00,weatherlink.com 1.10,2013-09-14 22:22:00,
2013-09-14 17:37:00,75.0,47.0,29.99,ESE,116,7.0,9.0,37,0.00,,,0.00,weatherlink.com 1.10,2013-09-14 22:37:00,
2013-09-14 17:52:00,75.1,47.0,29.99,ESE,120,5.0,10.0,37,0.00,,,0.00,weatherlink.com 1.10,2013-09-14 22:52:00,
2013-09-14 18:07:00,74.5,46.0,30.00,SSE,148,6.0,10.0,37,0.00,,,0.00,weatherlink.com 1.10,2013-09-14 23:07:00,
2013-09-14 18:22:00,74.1,46.0,30.00,ESE,119,3.0,8.0,37,0.00,,,0.00,weatherlink.com 1.10,2013-09-14 23:22:00,
2013-09-14 18:37:00,73.3,46.0,30.00,SE,126,3.0,5.0,38,0.00,,,0.00,weatherlink.com 1.10,2013-09-14 23:37:00,
2013-09-14 18:52:00,72.0,47.0,30.00,SE,126,1.0,3.0,41,0.00,,,0.00,weatherlink.com 1.10,2013-09-14 23:52:00,
2013-09-14 19:07:00,71.0,47.0,30.00,ESE,123,2.0,4.0,43,0.00,,,0.00,weatherlink.com 1.10,2013-09-15 00:07:00,
2013-09-14 19:22:00,69.6,48.0,30.00,ESE,119,2.0,5.0,46,0.00,,,0.00,weatherlink.com 1.10,2013-09-15 00:22:00,
2013-09-14 19:37:00,68.0,47.0,29.99,ESE,121,2.0,6.0,48,0.00,,,0.00,weatherlink.com 1.10,2013-09-15 00:37:00,
2013-09-14 19:52:00,67.1,47.0,30.00,ESE,119,0.0,4.0,49,0.00,,,0.00,weatherlink.com 1.10,2013-09-15 00:52:00,
2013-09-14 20:07:00,66.3,47.0,30.00,ESE,105,1.0,3.0,51,0.00,,,0.00,weatherlink.com 1.10,2013-09-15 01:07:00,
2013-09-14 20:22:00,65.5,47.0,30.00,ESE,105,2.0,3.0,52,0.00,,,0.00,weatherlink.com 1.10,2013-09-15 01:22:00,
2013-09-14 20:37:00,64.8,47.0,30.00,ESE,106,1.0,4.0,52,0.00,,,0.00,weatherlink.com 1.10,2013-09-15 01:37:00,
2013-09-14 20:52:00,64.0,46.0,30.00,SE,136,4.0,5.0,53,0.00,,,0.00,weatherlink.com 1.10,2013-09-15 01:52:00,
2013-09-14 21:07:00,63.7,47.0,30.00,SSE,163,1.0,3.0,54,0.00,,,0.00,weatherlink.com 1.10,2013-09-15 02:07:00,
2013-09-14 21:22:00,63.0,47.0,30.00,SSE,160,0.0,2.0,56,0.00,,,0.00,weatherlink.com 1.10,2013-09-15 02:22:00,
2013-09-14 21:37:00,61.6,47.0,30.00,SSE,160,0.0,2.0,60,0.00,,,0.00,weatherlink.com 1.10,2013-09-15 02:37:00,
2013-09-14 21:52:00,61.2,47.0,30.00,SSE,160,3.0,3.0,59,0.00,,,0.00,weatherlink.com 1.10,2013-09-15 02:52:00,
2013-09-14 22:07:00,62.3,47.0,30.00,SSE,163,1.0,5.0,58,0.00,,,0.00,weatherlink.com 1.10,2013-09-15 03:07:00,
2013-09-14 22:22:00,61.5,47.0,30.00,South,169,1.0,3.0,60,0.00,,,0.00,weatherlink.com 1.10,2013-09-15 03:22:00,
2013-09-14 22:37:00,60.7,47.0,30.00,South,169,0.0,1.0,62,0.00,,,0.00,weatherlink.com 1.10,2013-09-15 03:37:00,
2013-09-14 22:52:00,59.6,47.0,30.00,South,169,0.0,2.0,64,0.00,,,0.00,weatherlink.com 1.10,2013-09-15 03:52:00,
2013-09-14 23:07:00,58.8,48.0,30.00,South,169,0.0,2.0,67,0.00,,,0.00,weatherlink.com 1.10,2013-09-15 04:07:00,
2013-09-14 23:22:00,58.4,48.0,29.99,South,169,1.0,3.0,68,0.00,,,0.00,weatherlink.com 1.10,2013-09-15 04:22:00,
2013-09-14 23:37:00,58.9,48.0,29.99,SSE,154,1.0,3.0,67,0.00,,,0.00,weatherlink.com 1.10,2013-09-15 04:37:00,
2013-09-14 23:52:00,58.7,48.0,29.99,SSE,156,2.0,3.0,68,0.00,,,0.00,weatherlink.com 1.10,2013-09-15 04:52:00,